createdAt,value
2022-08-20T00:02:26.468Z,23.45
2022-08-20T00:04:54.794Z,23.41
2022-08-20T00:07:23.057Z,23.36
2022-08-20T00:09:53.787Z,23.35
2022-08-20T00:12:22.230Z,23.33
2022-08-20T00:14:53.443Z,23.27
2022-08-20T00:17:24.894Z,23.24
2022-08-20T00:19:53.524Z,23.21
2022-08-20T00:22:24.092Z,23.19
2022-08-20T00:24:52.525Z,23.13
2022-08-20T00:27:25.273Z,23.07
2022-08-20T00:29:53.877Z,23.01
2022-08-20T00:32:22.142Z,22.93
2022-08-20T00:34:50.479Z,22.86
2022-08-20T00:37:19.092Z,22.78
2022-08-20T00:39:50.284Z,22.77
2022-08-20T00:42:20.517Z,22.76
2022-08-20T00:44:49.023Z,22.73
2022-08-20T00:47:17.290Z,22.69
2022-08-20T00:49:46.497Z,22.70
2022-08-20T00:52:19.727Z,22.65
2022-08-20T00:55:03.212Z,22.59
2022-08-20T00:58:00.589Z,22.56
2022-08-20T01:00:38.605Z,22.51
2022-08-20T01:03:10.666Z,22.51
2022-08-20T01:05:45.696Z,22.45
2022-08-20T01:08:25.516Z,22.39
2022-08-20T01:11:09.923Z,22.35
2022-08-20T01:13:40.850Z,22.34
2022-08-20T01:16:13.760Z,22.31
2022-08-20T01:18:43.077Z,22.27
2022-08-20T01:21:11.805Z,22.27
2022-08-20T01:23:50.051Z,22.28
2022-08-20T01:26:43.497Z,22.33
2022-08-20T01:29:24.036Z,22.37
2022-08-20T01:31:52.914Z,22.42
2022-08-20T01:34:35.385Z,22.50
2022-08-20T01:37:39.994Z,22.57
2022-08-20T01:40:49.765Z,22.60
2022-08-20T01:43:21.431Z,22.63
2022-08-20T01:45:53.835Z,22.66
2022-08-20T01:48:49.810Z,22.66
2022-08-20T01:51:51.877Z,22.68
2022-08-20T01:54:21.410Z,22.70
2022-08-20T01:59:23.312Z,22.74
2022-08-20T02:01:52.449Z,22.74
2022-08-20T02:04:21.441Z,22.75
2022-08-20T02:07:02.502Z,22.77
2022-08-20T02:09:38.851Z,22.76
2022-08-20T02:12:09.921Z,22.73
2022-08-20T02:14:52.307Z,22.69
2022-08-20T02:17:24.230Z,22.65
2022-08-20T02:20:05.587Z,22.63
2022-08-20T02:22:59.451Z,22.55
2022-08-20T02:25:52.291Z,22.48
2022-08-20T02:28:21.520Z,22.41
2022-08-20T02:30:56.231Z,22.37
2022-08-20T02:34:19.756Z,22.32
2022-08-20T02:37:10.782Z,22.29
2022-08-20T02:39:50.945Z,22.22
2022-08-20T02:42:19.195Z,22.17
2022-08-20T02:44:53.856Z,22.14
2022-08-20T02:47:22.261Z,22.08
2022-08-20T02:49:53.432Z,22.02
2022-08-20T02:52:24.953Z,21.98
2022-08-20T02:54:59.473Z,21.90
2022-08-20T02:57:29.940Z,21.90
2022-08-20T02:59:58.549Z,21.85
2022-08-20T03:02:58.398Z,21.81
2022-08-20T03:05:56.238Z,21.74
2022-08-20T03:08:52.362Z,21.70
2022-08-20T03:11:23.707Z,21.65
2022-08-20T03:13:55.037Z,21.63
2022-08-20T03:16:53.157Z,21.59
2022-08-20T03:19:22.110Z,21.54
2022-08-20T03:21:56.831Z,21.53
2022-08-20T03:24:58.102Z,21.51
2022-08-20T03:27:32.670Z,21.45
2022-08-20T03:30:26.518Z,21.35
2022-08-20T03:32:56.340Z,21.29
2022-08-20T03:35:52.561Z,21.24
2022-08-20T03:38:32.542Z,21.18
2022-08-20T03:41:12.263Z,21.17
2022-08-20T03:44:14.805Z,21.15
2022-08-20T03:47:10.572Z,21.12
2022-08-20T03:49:59.008Z,21.10
2022-08-20T03:52:43.848Z,21.07
2022-08-20T03:56:01.752Z,21.04
2022-08-20T03:58:54.480Z,21.01
2022-08-20T04:01:58.437Z,20.99
2022-08-20T04:12:01.080Z,20.85
2022-08-20T04:14:32.860Z,20.79
2022-08-20T04:17:07.760Z,20.73
2022-08-20T04:20:06.030Z,20.70
2022-08-20T04:22:39.079Z,20.65
2022-08-20T04:25:12.073Z,20.63
2022-08-20T04:28:04.970Z,20.61
2022-08-20T04:31:23.241Z,20.57
2022-08-20T04:33:56.118Z,20.51
2022-08-20T04:36:23.916Z,20.47
2022-08-20T04:38:56.412Z,20.46
2022-08-20T04:41:25.272Z,20.42
2022-08-20T04:43:58.967Z,20.41
2022-08-20T04:46:29.593Z,20.38
2022-08-20T04:48:58.702Z,20.37
2022-08-20T04:51:28.295Z,20.36
2022-08-20T04:54:16.627Z,20.31
2022-08-20T04:56:45.578Z,20.28
2022-08-20T04:59:14.757Z,20.25
2022-08-20T05:01:43.021Z,20.22
2022-08-20T05:04:12.185Z,20.17
2022-08-20T05:07:06.309Z,20.15
2022-08-20T05:09:43.666Z,20.08
2022-08-20T05:12:25.861Z,20.03
2022-08-20T05:15:14.637Z,20.00
2022-08-20T05:17:55.349Z,19.98
2022-08-20T05:20:36.800Z,19.96
2022-08-20T05:23:05.093Z,19.93
2022-08-20T05:25:58.385Z,19.91
2022-08-20T05:28:36.924Z,19.85
2022-08-20T05:31:32.537Z,19.80
2022-08-20T05:34:11.572Z,19.79
2022-08-20T05:36:59.597Z,19.76
2022-08-20T05:39:30.903Z,19.76
2022-08-20T05:42:01.468Z,19.75
2022-08-20T05:44:30.151Z,19.74
2022-08-20T05:46:58.356Z,19.68
2022-08-20T05:49:27.671Z,19.64
2022-08-20T05:52:00.057Z,19.57
2022-08-20T05:54:29.007Z,19.49
2022-08-20T05:56:57.308Z,19.44
2022-08-20T05:59:28.975Z,19.39
2022-08-20T06:01:57.197Z,19.34
2022-08-20T06:04:42.749Z,19.30
2022-08-20T06:07:29.214Z,19.24
2022-08-20T06:09:57.524Z,19.21
2022-08-20T06:12:26.194Z,19.19
2022-08-20T06:14:57.279Z,19.15
2022-08-20T06:17:34.779Z,19.12
2022-08-20T06:20:24.636Z,19.04
2022-08-20T06:22:58.383Z,18.99
2022-08-20T06:25:29.659Z,18.93
2022-08-20T06:27:58.970Z,18.86
2022-08-20T06:30:27.413Z,18.78
2022-08-20T06:32:58.245Z,18.74
2022-08-20T06:35:26.595Z,18.72
2022-08-20T06:38:01.116Z,18.69
2022-08-20T06:40:30.224Z,18.64
2022-08-20T06:42:58.932Z,18.58
2022-08-20T06:45:30.946Z,18.53
2022-08-20T06:48:02.272Z,18.50
2022-08-20T06:50:56.444Z,18.46
2022-08-20T06:53:25.459Z,18.40
2022-08-20T06:56:06.501Z,18.38
2022-08-20T06:58:37.159Z,18.34
2022-08-20T07:01:12.099Z,18.33
2022-08-20T07:03:54.817Z,18.31
2022-08-20T07:06:26.927Z,18.27
2022-08-20T07:08:56.533Z,18.22
2022-08-20T07:11:28.947Z,18.20
2022-08-20T07:13:59.089Z,18.17
2022-08-20T07:16:28.278Z,18.13
2022-08-20T07:18:56.789Z,18.10
2022-08-20T07:21:26.215Z,18.07
2022-08-20T07:23:55.121Z,18.04
2022-08-20T07:26:24.315Z,18.03
2022-08-20T07:28:53.189Z,18.01
2022-08-20T07:31:42.145Z,17.99
2022-08-20T07:34:12.581Z,17.97
2022-08-20T07:36:42.239Z,17.95
2022-08-20T07:39:11.379Z,17.94
2022-08-20T07:41:40.139Z,17.91
2022-08-20T07:44:08.808Z,17.88
2022-08-20T07:46:37.131Z,17.88
2022-08-20T07:49:11.047Z,17.90
2022-08-20T07:51:40.553Z,17.90
2022-08-20T07:54:09.063Z,17.92
2022-08-20T07:56:37.698Z,17.92
2022-08-20T07:59:07.199Z,17.92
2022-08-20T08:01:36.261Z,17.91
2022-08-20T08:04:05.470Z,17.89
2022-08-20T08:06:34.344Z,17.89
2022-08-20T08:09:07.651Z,17.90
2022-08-20T08:11:58.479Z,17.90
2022-08-20T08:14:39.730Z,17.89
2022-08-20T08:17:08.217Z,17.85
2022-08-20T08:19:42.417Z,17.85
2022-08-20T08:22:14.358Z,17.85
2022-08-20T08:24:57.464Z,17.83
2022-08-20T08:27:26.863Z,17.82
2022-08-20T08:29:55.918Z,17.80
2022-08-20T08:32:25.572Z,17.79
2022-08-20T08:34:54.201Z,17.77
2022-08-20T08:37:23.070Z,17.76
2022-08-20T08:39:56.220Z,17.75
2022-08-20T08:42:50.107Z,17.74
2022-08-20T08:45:20.529Z,17.73
2022-08-20T08:47:50.144Z,17.72
2022-08-20T08:50:50.057Z,17.70
2022-08-20T08:53:23.720Z,17.70
2022-08-20T08:55:53.064Z,17.68
2022-08-20T08:58:21.838Z,17.66
2022-08-20T09:00:56.362Z,17.64
2022-08-20T09:03:30.822Z,17.64
2022-08-20T09:06:01.673Z,17.65
2022-08-20T09:09:01.754Z,17.63
2022-08-20T09:11:30.932Z,17.62
2022-08-20T09:13:59.444Z,17.60
2022-08-20T09:16:44.707Z,17.60
2022-08-20T09:19:18.109Z,17.60
2022-08-20T09:21:46.666Z,17.59
2022-08-20T09:24:15.271Z,17.56
2022-08-20T09:26:44.083Z,17.52
2022-08-20T09:29:12.614Z,17.53
2022-08-20T09:31:41.365Z,17.51
2022-08-20T09:34:09.866Z,17.48
2022-08-20T09:36:38.078Z,17.48
2022-08-20T09:39:07.276Z,17.46
2022-08-20T09:41:36.066Z,17.45
2022-08-20T09:44:04.545Z,17.43
2022-08-20T09:46:33.354Z,17.40
2022-08-20T09:49:01.565Z,17.38
2022-08-20T09:51:30.325Z,17.40
2022-08-20T09:53:58.741Z,17.40
2022-08-20T09:56:27.347Z,17.39
2022-08-20T09:59:00.989Z,17.38
2022-08-20T10:01:31.324Z,17.37
2022-08-20T10:03:59.607Z,17.36
2022-08-20T10:06:28.289Z,17.35
2022-08-20T10:08:57.103Z,17.33
2022-08-20T10:11:25.726Z,17.31
2022-08-20T10:13:57.278Z,17.27
2022-08-20T10:16:25.837Z,17.23
2022-08-20T10:18:54.522Z,17.22
2022-08-20T10:21:23.005Z,17.21
2022-08-20T10:23:51.730Z,17.17
2022-08-20T10:26:20.588Z,17.17
2022-08-20T10:28:49.296Z,17.16
2022-08-20T10:31:17.816Z,17.13
2022-08-20T10:33:46.056Z,17.14
2022-08-20T10:36:18.361Z,17.13
2022-08-20T10:38:49.204Z,17.12
2022-08-20T10:41:18.089Z,17.10
2022-08-20T10:43:47.269Z,17.09
2022-08-20T10:46:15.767Z,17.08
2022-08-20T10:48:44.368Z,17.06
2022-08-20T10:51:13.170Z,17.05
2022-08-20T10:53:41.436Z,17.05
2022-08-20T10:56:13.754Z,17.03
2022-08-20T10:58:44.549Z,17.00
2022-08-20T11:01:32.568Z,16.99
2022-08-20T11:04:01.518Z,17.00
2022-08-20T11:06:31.858Z,17.00
2022-08-20T11:09:00.073Z,16.98
2022-08-20T11:11:28.673Z,16.95
2022-08-20T11:13:57.261Z,16.98
2022-08-20T11:16:27.490Z,16.97
2022-08-20T11:18:58.454Z,16.98
2022-08-20T11:21:26.908Z,16.98
2022-08-20T11:23:56.352Z,16.97
2022-08-20T11:26:27.087Z,16.98
2022-08-20T11:28:55.638Z,16.98
2022-08-20T11:31:24.237Z,16.98
2022-08-20T11:33:53.247Z,16.98
2022-08-20T11:36:21.923Z,16.95
2022-08-20T11:38:51.712Z,16.94
2022-08-20T11:41:20.070Z,16.92
2022-08-20T11:44:10.510Z,16.88
2022-08-20T11:46:37.266Z,16.86
2022-08-20T11:49:05.791Z,16.83
2022-08-20T11:51:39.108Z,16.82
2022-08-20T11:54:18.834Z,16.80
2022-08-20T11:56:47.940Z,16.72
2022-08-20T11:59:16.669Z,16.64
2022-08-20T12:02:01.928Z,16.61
2022-08-20T12:04:30.920Z,16.55
2022-08-20T12:07:10.539Z,16.49
2022-08-20T12:09:41.946Z,16.46
2022-08-20T12:12:21.554Z,16.39
2022-08-20T12:14:49.885Z,16.36
2022-08-20T12:17:24.480Z,16.35
2022-08-20T12:19:55.498Z,16.38
2022-08-20T12:22:25.190Z,16.36
2022-08-20T12:24:56.024Z,16.41
2022-08-20T12:27:30.035Z,16.44
2022-08-20T12:30:01.390Z,16.46
2022-08-20T12:32:33.948Z,16.49
2022-08-20T12:35:02.173Z,16.52
2022-08-20T12:37:32.148Z,16.45
2022-08-20T12:40:02.732Z,16.44
2022-08-20T12:42:33.848Z,16.41
2022-08-20T12:45:02.578Z,16.39
2022-08-20T12:47:33.844Z,16.42
2022-08-20T12:50:03.493Z,16.42
2022-08-20T12:52:37.173Z,16.44
2022-08-20T12:55:07.038Z,16.53
2022-08-20T12:57:45.147Z,16.59
2022-08-20T13:00:31.560Z,16.65
2022-08-20T13:03:02.908Z,16.70
2022-08-20T13:05:32.221Z,16.72
2022-08-20T13:08:01.533Z,16.73
2022-08-20T13:10:34.560Z,16.75
2022-08-20T13:13:06.139Z,16.74
2022-08-20T13:15:34.802Z,16.71
2022-08-20T13:18:06.907Z,16.68
2022-08-20T13:20:36.815Z,16.66
2022-08-20T13:23:06.448Z,16.67
2022-08-20T13:25:35.433Z,16.69
2022-08-20T13:28:05.491Z,16.71
2022-08-20T13:30:41.140Z,16.72
2022-08-20T13:33:10.803Z,16.74
2022-08-20T13:35:39.421Z,16.74
2022-08-20T13:38:07.724Z,16.73
2022-08-20T13:40:39.064Z,16.72
2022-08-20T13:43:07.726Z,16.71
2022-08-20T13:45:41.421Z,16.69
2022-08-20T13:48:14.835Z,16.73
2022-08-20T13:50:43.923Z,16.73
2022-08-20T13:53:16.163Z,16.73
2022-08-20T13:55:45.605Z,16.74
2022-08-20T13:58:13.941Z,16.73
2022-08-20T14:00:42.729Z,16.73
2022-08-20T14:03:11.431Z,16.72
2022-08-20T14:05:40.205Z,16.67
2022-08-20T14:08:11.463Z,16.64
2022-08-20T14:10:42.768Z,16.61
2022-08-20T14:13:15.440Z,16.62
2022-08-20T14:15:45.326Z,16.65
2022-08-20T14:18:15.419Z,16.68
2022-08-20T14:20:45.326Z,16.72
2022-08-20T14:23:15.465Z,16.75
2022-08-20T14:25:47.452Z,16.75
2022-08-20T14:28:22.416Z,16.74
2022-08-20T14:30:53.312Z,16.74
2022-08-20T14:33:23.003Z,16.74
2022-08-20T14:35:51.593Z,16.75
2022-08-20T14:38:19.937Z,16.79
2022-08-20T14:40:48.483Z,16.80
2022-08-20T14:43:16.722Z,16.82
2022-08-20T14:45:45.813Z,16.87
2022-08-20T14:48:15.795Z,16.96
2022-08-20T14:50:44.095Z,17.02
2022-08-20T14:53:12.523Z,17.06
2022-08-20T14:55:41.235Z,17.08
2022-08-20T14:58:14.056Z,17.10
2022-08-20T15:00:43.933Z,17.11
2022-08-20T15:03:14.179Z,17.13
2022-08-20T15:05:42.491Z,17.17
2022-08-20T15:08:12.423Z,17.25
2022-08-20T15:10:42.272Z,17.35
2022-08-20T15:13:10.580Z,17.43
2022-08-20T15:15:40.310Z,17.54
2022-08-20T15:18:09.161Z,17.62
2022-08-20T15:20:38.134Z,17.68
2022-08-20T15:23:06.856Z,17.77
2022-08-20T15:25:37.946Z,17.84
2022-08-20T15:28:09.493Z,17.90
2022-08-20T15:30:38.231Z,17.97
2022-08-20T15:33:07.248Z,18.02
2022-08-20T15:35:38.620Z,18.07
2022-08-20T15:38:09.735Z,18.13
2022-08-20T15:40:37.995Z,18.21
2022-08-20T15:43:07.492Z,18.30
2022-08-20T15:45:37.327Z,18.41
2022-08-20T15:48:13.486Z,18.49
2022-08-20T15:51:06.326Z,18.56
2022-08-20T15:53:53.788Z,18.72
2022-08-20T15:56:59.336Z,18.85
2022-08-20T15:59:39.519Z,18.96
2022-08-20T16:02:07.744Z,19.04
2022-08-20T16:04:54.197Z,19.14
2022-08-20T16:07:52.031Z,19.31
2022-08-20T16:10:48.773Z,19.46
2022-08-20T16:13:25.892Z,19.57
2022-08-20T16:16:01.303Z,19.66
2022-08-20T16:18:34.458Z,19.80
2022-08-20T16:21:09.396Z,19.93
2022-08-20T16:23:40.970Z,20.07
2022-08-20T16:26:29.378Z,20.20
2022-08-20T16:29:02.819Z,20.30
2022-08-20T16:31:40.983Z,20.41
2022-08-20T16:34:33.913Z,20.50
2022-08-20T16:37:26.848Z,20.57
2022-08-20T16:40:14.571Z,20.65
2022-08-20T16:42:46.996Z,20.75
2022-08-20T16:45:31.036Z,20.83
2022-08-20T16:48:02.929Z,20.92
2022-08-20T16:50:52.729Z,20.97
2022-08-20T16:53:24.216Z,21.01
2022-08-20T16:56:02.492Z,21.05
2022-08-20T16:58:33.228Z,21.07
2022-08-20T17:01:13.950Z,21.13
2022-08-20T17:03:53.828Z,21.19
2022-08-20T17:06:44.606Z,21.34
2022-08-20T17:09:34.203Z,21.41
2022-08-20T17:12:35.055Z,21.56
2022-08-20T17:15:03.285Z,21.64
2022-08-20T17:17:38.857Z,21.71
2022-08-20T17:20:19.920Z,21.77
2022-08-20T17:23:02.637Z,21.83
2022-08-20T17:25:39.407Z,21.90
2022-08-20T17:28:37.018Z,21.97
2022-08-20T17:31:08.650Z,22.01
2022-08-20T17:33:41.348Z,22.04
2022-08-20T17:36:36.151Z,22.03
2022-08-20T17:39:06.994Z,22.03
2022-08-20T17:41:37.354Z,22.09
2022-08-20T17:44:19.752Z,22.13
2022-08-20T17:49:57.300Z,22.31
2022-08-20T17:52:42.568Z,22.32
2022-08-20T17:55:13.321Z,22.37
2022-08-20T17:57:46.644Z,22.49
2022-08-20T18:00:25.369Z,22.66
2022-08-20T18:03:00.930Z,22.77
2022-08-20T18:05:34.256Z,22.84
2022-08-20T18:08:30.633Z,22.93
2022-08-20T18:11:07.921Z,22.98
2022-08-20T18:13:48.158Z,23.04
2022-08-20T18:16:32.286Z,23.14
2022-08-20T18:19:38.310Z,23.24
2022-08-20T18:22:34.217Z,23.26
2022-08-20T18:25:37.409Z,23.36
2022-08-20T18:28:38.826Z,23.42
2022-08-20T18:31:11.522Z,23.50
2022-08-20T18:33:43.798Z,23.56
2022-08-20T18:36:46.744Z,23.64
2022-08-20T18:40:04.665Z,23.71
2022-08-20T18:43:03.331Z,23.76
2022-08-20T18:45:47.737Z,23.86
2022-08-20T18:51:49.117Z,24.05
2022-08-20T18:54:32.132Z,24.15
2022-08-20T18:57:09.014Z,24.27
2022-08-20T18:59:44.044Z,24.37
2022-08-20T19:02:39.673Z,24.47
2022-08-20T19:05:13.179Z,24.50
2022-08-20T19:07:48.934Z,24.59
2022-08-20T19:10:47.992Z,24.67
2022-08-20T19:14:10.056Z,24.74
2022-08-20T19:17:04.823Z,24.78
2022-08-20T19:19:42.439Z,24.80
2022-08-20T19:22:39.708Z,24.81
2022-08-20T19:25:47.895Z,24.94
2022-08-20T19:28:45.835Z,25.04
2022-08-20T19:31:47.789Z,25.12
2022-08-20T19:35:13.663Z,25.22
2022-08-20T19:37:51.279Z,25.35
2022-08-20T19:40:46.028Z,25.48
2022-08-20T19:43:35.625Z,25.54
2022-08-20T19:46:06.931Z,25.57
2022-08-20T19:49:13.056Z,25.62
2022-08-20T19:52:24.942Z,25.69
2022-08-20T19:55:04.035Z,25.71
2022-08-20T20:05:44.359Z,25.99
2022-08-20T20:08:54.192Z,26.05
2022-08-20T20:11:45.554Z,26.06
2022-08-20T20:14:41.960Z,26.12
2022-08-20T20:17:47.689Z,26.13
2022-08-20T20:23:51.382Z,26.33
2022-08-20T20:26:43.379Z,26.39
2022-08-20T20:29:40.584Z,26.47
2022-08-20T20:32:39.565Z,26.53
2022-08-20T20:36:49.205Z,26.51
2022-08-20T20:42:11.351Z,26.56
2022-08-20T20:44:44.685Z,26.61
2022-08-20T20:47:44.006Z,26.70
2022-08-20T20:50:13.577Z,26.77
2022-08-20T20:53:09.519Z,26.78
2022-08-20T20:55:39.341Z,26.74
2022-08-20T20:58:10.949Z,26.72
2022-08-20T21:00:41.615Z,26.63
2022-08-20T21:03:09.978Z,26.52
2022-08-20T21:05:41.923Z,26.47
2022-08-20T21:08:14.015Z,26.42
2022-08-20T21:10:44.109Z,26.34
2022-08-20T21:13:12.824Z,26.30
2022-08-20T21:15:41.713Z,26.27
2022-08-20T21:18:13.027Z,26.32
2022-08-20T21:20:41.325Z,26.33
2022-08-20T21:23:12.540Z,26.29
2022-08-20T21:25:41.707Z,26.31
2022-08-20T21:28:10.156Z,26.32
2022-08-20T21:30:41.285Z,26.22
2022-08-20T21:33:12.240Z,26.09
2022-08-20T21:35:43.189Z,26.02
2022-08-20T21:38:12.145Z,26.05
2022-08-20T21:40:42.245Z,26.05
2022-08-20T21:43:14.454Z,26.03
2022-08-20T21:45:42.880Z,26.07
2022-08-20T21:48:12.485Z,26.12
2022-08-20T21:50:44.469Z,26.14
2022-08-20T21:53:13.823Z,26.10
2022-08-20T21:55:42.537Z,26.08
2022-08-20T21:58:11.295Z,26.05
2022-08-20T22:01:17.373Z,26.03
2022-08-20T22:03:45.706Z,25.98
2022-08-20T22:06:18.140Z,25.94
2022-08-20T22:08:46.416Z,25.90
2022-08-20T22:11:15.242Z,25.85
2022-08-20T22:13:43.520Z,25.79
2022-08-20T22:16:14.031Z,25.75
2022-08-20T22:18:42.695Z,25.72
2022-08-20T22:21:15.695Z,25.65
2022-08-20T22:23:44.158Z,25.60
2022-08-20T22:26:12.514Z,25.56
2022-08-20T22:28:41.666Z,25.49
2022-08-20T22:31:10.466Z,25.45
2022-08-20T22:33:39.994Z,25.39
2022-08-20T22:36:09.687Z,25.32
2022-08-20T22:38:38.663Z,25.27
2022-08-20T22:41:09.778Z,25.21
2022-08-20T22:43:43.465Z,25.18
2022-08-20T22:46:27.959Z,25.14
2022-08-20T22:48:57.258Z,25.10
2022-08-20T22:51:38.769Z,25.04
2022-08-20T22:54:12.701Z,25.00
2022-08-20T22:56:41.267Z,24.98
2022-08-20T22:59:12.611Z,24.95
2022-08-20T23:01:44.480Z,24.92
2022-08-20T23:04:37.959Z,24.89
2022-08-20T23:07:29.405Z,24.85
2022-08-20T23:09:57.836Z,24.81
2022-08-20T23:12:29.464Z,24.77
2022-08-20T23:15:05.348Z,24.75
2022-08-20T23:17:35.632Z,24.74
2022-08-20T23:20:14.719Z,24.69
2022-08-20T23:22:46.427Z,24.64
2022-08-20T23:28:22.240Z,24.27
2022-08-20T23:30:50.676Z,24.10
2022-08-20T23:33:22.073Z,23.96
2022-08-20T23:35:50.792Z,23.83
2022-08-20T23:38:23.090Z,23.75
2022-08-20T23:40:51.748Z,23.69
2022-08-20T23:43:19.921Z,23.67
2022-08-20T23:45:50.249Z,23.63
2022-08-20T23:48:20.676Z,23.61
2022-08-20T23:50:48.887Z,23.57
2022-08-20T23:53:22.958Z,23.52
2022-08-20T23:55:51.271Z,23.46
2022-08-20T23:58:19.642Z,23.40
